createdAt,value
2018-12-13T00:01:01.196Z,19.15
2018-12-13T00:02:04.410Z,19.65
2018-12-13T00:03:06.849Z,23.40
2018-12-13T00:04:09.363Z,21.05
2018-12-13T00:05:11.807Z,25.10
2018-12-13T00:06:14.281Z,22.30
2018-12-13T00:07:16.735Z,22.93
2018-12-13T00:08:19.168Z,19.80
2018-12-13T00:09:21.611Z,20.25
2018-12-13T00:10:24.048Z,20.60
2018-12-13T00:11:26.499Z,25.52
2018-12-13T00:12:28.947Z,22.98
2018-12-13T00:13:31.388Z,22.07
2018-12-13T00:14:33.823Z,23.07
2018-12-13T00:15:36.258Z,25.10
2018-12-13T00:16:38.716Z,21.15
2018-12-13T00:17:41.163Z,22.07
2018-12-13T00:18:43.595Z,23.22
2018-12-13T00:19:46.031Z,20.72
2018-12-13T00:20:48.493Z,29.82
2018-12-13T00:21:50.949Z,22.35
2018-12-13T00:22:53.412Z,21.80
2018-12-13T00:23:55.872Z,22.27
2018-12-13T00:24:58.315Z,48.40
2018-12-13T00:26:00.749Z,32.48
2018-12-13T00:27:03.289Z,26.68
2018-12-13T00:28:05.972Z,24.82
2018-12-13T00:29:08.424Z,22.62
2018-12-13T00:30:10.860Z,25.10
2018-12-13T00:31:13.292Z,23.45
2018-12-13T00:32:15.794Z,20.17
2018-12-13T00:33:18.242Z,20.92
2018-12-13T00:34:20.697Z,21.20
2018-12-13T00:35:23.128Z,21.17
2018-12-13T00:36:25.572Z,22.95
2018-12-13T00:37:28.028Z,22.37
2018-12-13T00:38:30.483Z,24.15
2018-12-13T00:39:32.932Z,22.27
2018-12-13T00:40:35.402Z,23.12
2018-12-13T00:41:37.833Z,22.02
2018-12-13T00:42:40.283Z,21.85
2018-12-13T00:43:42.736Z,22.32
2018-12-13T00:44:45.175Z,20.15
2018-12-13T00:45:47.631Z,23.12
2018-12-13T00:46:50.089Z,22.22
2018-12-13T00:47:52.555Z,22.87
2018-12-13T00:48:55.036Z,19.37
2018-12-13T00:49:57.502Z,21.48
2018-12-13T00:50:59.955Z,21.15
2018-12-13T00:52:02.405Z,22.98
2018-12-13T00:53:04.871Z,23.95
2018-12-13T00:54:07.355Z,21.37
2018-12-13T00:55:09.800Z,27.35
2018-12-13T00:56:12.251Z,21.82
2018-12-13T00:57:14.688Z,23.47
2018-12-13T00:58:17.144Z,22.48
2018-12-13T00:59:19.595Z,21.10
2018-12-13T01:00:22.070Z,23.80
2018-12-13T01:01:24.523Z,22.98
2018-12-13T01:02:27.082Z,23.52
2018-12-13T01:03:29.547Z,22.98
2018-12-13T01:04:31.991Z,21.90
2018-12-13T01:05:34.435Z,22.70
2018-12-13T01:06:36.872Z,23.40
2018-12-13T01:07:39.334Z,21.45
2018-12-13T01:08:41.771Z,22.80
2018-12-13T01:09:44.289Z,23.77
2018-12-13T01:10:46.745Z,21.75
2018-12-13T01:11:49.175Z,21.60
2018-12-13T01:12:51.631Z,22.87
2018-12-13T01:13:54.102Z,20.50
2018-12-13T01:14:56.626Z,22.50
2018-12-13T01:15:59.067Z,25.52
2018-12-13T01:17:01.506Z,21.95
2018-12-13T01:18:03.965Z,22.07
2018-12-13T01:19:06.395Z,22.93
2018-12-13T01:20:08.823Z,26.07
2018-12-13T01:21:11.278Z,26.45
2018-12-13T01:22:13.749Z,25.17
2018-12-13T01:23:16.216Z,24.92
2018-12-13T01:24:18.679Z,30.10
2018-12-13T01:25:21.124Z,26.23
2018-12-13T01:26:23.567Z,29.45
2018-12-13T01:27:26.005Z,27.02
2018-12-13T01:28:28.470Z,25.43
2018-12-13T01:29:30.938Z,26.95
2018-12-13T01:30:33.377Z,25.02
2018-12-13T01:31:35.826Z,27.37
2018-12-13T01:32:38.263Z,24.10
2018-12-13T01:33:40.750Z,28.05
2018-12-13T01:34:43.205Z,24.80
2018-12-13T01:35:45.652Z,23.60
2018-12-13T01:36:52.409Z,28.27
2018-12-13T01:37:52.555Z,28.35
2018-12-13T01:38:55.014Z,24.35
2018-12-13T01:39:57.465Z,31.95
2018-12-13T01:41:00.023Z,35.08
2018-12-13T01:42:02.469Z,30.75
2018-12-13T01:43:04.925Z,31.00
2018-12-13T01:44:07.377Z,30.20
2018-12-13T01:45:09.923Z,30.72
2018-12-13T01:46:12.371Z,23.20
2018-12-13T01:47:14.825Z,29.37
2018-12-13T01:48:17.275Z,28.30
2018-12-13T01:49:19.738Z,28.25
2018-12-13T01:50:22.202Z,25.23
2018-12-13T01:51:24.643Z,26.48
2018-12-13T01:52:27.085Z,19.95
2018-12-13T01:53:29.526Z,22.32
2018-12-13T01:54:31.983Z,22.77
2018-12-13T01:55:34.447Z,23.47
2018-12-13T01:56:36.997Z,24.00
2018-12-13T01:57:39.431Z,20.68
2018-12-13T01:58:41.871Z,20.82
2018-12-13T01:59:44.329Z,17.17
2018-12-13T02:00:46.768Z,23.32
2018-12-13T02:01:49.216Z,19.75
2018-12-13T02:02:51.648Z,18.80
2018-12-13T02:03:54.100Z,17.23
2018-12-13T02:04:56.556Z,17.92
2018-12-13T02:05:59.019Z,15.80
2018-12-13T02:07:01.463Z,14.85
2018-12-13T02:08:03.924Z,15.30
2018-12-13T02:09:06.738Z,15.88
2018-12-13T02:10:09.294Z,14.13
2018-12-13T02:11:11.776Z,13.85
2018-12-13T02:12:14.225Z,13.78
2018-12-13T02:13:16.693Z,14.40
2018-12-13T02:14:19.123Z,10.65
2018-12-13T02:15:21.587Z,12.98
2018-12-13T02:16:24.023Z,12.00
2018-12-13T02:17:26.465Z,11.35
2018-12-13T02:18:28.911Z,11.05
2018-12-13T02:19:31.345Z,11.50
2018-12-13T02:20:33.804Z,12.25
2018-12-13T02:21:36.268Z,10.98
2018-12-13T02:22:38.704Z,8.58
2018-12-13T02:23:41.161Z,10.65
2018-12-13T02:24:43.614Z,9.53
2018-12-13T02:25:46.071Z,10.25
2018-12-13T02:26:48.519Z,10.30
2018-12-13T02:27:50.970Z,9.90
2018-12-13T02:28:53.418Z,10.95
2018-12-13T02:29:55.859Z,10.95
2018-12-13T02:30:58.305Z,10.10
2018-12-13T02:32:00.765Z,10.20
2018-12-13T02:33:03.191Z,8.70
2018-12-13T02:34:05.633Z,10.78
2018-12-13T02:35:08.086Z,8.85
2018-12-13T02:36:10.532Z,8.10
2018-12-13T02:37:12.987Z,10.70
2018-12-13T02:38:15.430Z,8.43
2018-12-13T02:39:17.860Z,10.82
2018-12-13T02:40:20.295Z,9.13
2018-12-13T02:41:22.795Z,11.97
2018-12-13T02:42:25.221Z,8.60
2018-12-13T02:43:27.659Z,12.68
2018-12-13T02:44:30.108Z,14.93
2018-12-13T02:45:32.651Z,18.27
2018-12-13T02:46:35.125Z,11.85
2018-12-13T02:47:37.582Z,10.60
2018-12-13T02:48:40.019Z,12.60
2018-12-13T02:49:42.484Z,11.53
2018-12-13T02:50:44.928Z,15.30
2018-12-13T02:51:47.411Z,10.10
2018-12-13T02:52:49.857Z,7.30
2018-12-13T02:53:52.305Z,8.78
2018-12-13T02:54:54.740Z,10.30
2018-12-13T02:55:57.167Z,9.98
2018-12-13T02:56:59.610Z,8.63
2018-12-13T02:58:02.078Z,12.00
2018-12-13T02:59:04.526Z,8.60
2018-12-13T03:00:07.044Z,9.95
2018-12-13T03:01:09.483Z,10.75
2018-12-13T03:02:11.939Z,10.05
2018-12-13T03:03:14.376Z,8.18
2018-12-13T03:04:16.811Z,9.03
2018-12-13T03:05:19.319Z,11.28
2018-12-13T03:06:21.760Z,10.70
2018-12-13T03:07:24.212Z,10.88
2018-12-13T03:08:26.686Z,10.05
2018-12-13T03:09:29.152Z,11.30
2018-12-13T03:10:31.597Z,11.03
2018-12-13T03:11:34.047Z,10.85
2018-12-13T03:12:36.504Z,11.30
2018-12-13T03:13:38.969Z,10.30
2018-12-13T03:14:41.404Z,11.60
2018-12-13T03:15:43.836Z,11.28
2018-12-13T03:16:46.360Z,11.22
2018-12-13T03:17:48.822Z,12.45
2018-12-13T03:18:51.260Z,13.15
2018-12-13T03:19:53.692Z,11.33
2018-12-13T03:20:56.147Z,12.20
2018-12-13T03:21:58.587Z,11.08
2018-12-13T03:23:01.147Z,14.25
2018-12-13T03:24:03.583Z,13.50
2018-12-13T03:25:06.122Z,13.85
2018-12-13T03:26:08.606Z,12.30
2018-12-13T03:27:11.050Z,10.98
2018-12-13T03:28:13.501Z,14.50
2018-12-13T03:29:15.967Z,13.40
2018-12-13T03:30:18.404Z,13.28
2018-12-13T03:31:20.897Z,10.30
2018-12-13T03:32:23.347Z,14.23
2018-12-13T03:33:25.809Z,20.82
2018-12-13T03:34:28.342Z,15.23
2018-12-13T03:35:30.838Z,15.70
2018-12-13T03:36:33.351Z,15.70
2018-12-13T03:37:35.797Z,17.62
2018-12-13T03:38:38.285Z,16.50
2018-12-13T03:39:40.771Z,13.98
2018-12-13T03:40:43.229Z,18.87
2018-12-13T03:41:45.683Z,16.75
2018-12-13T03:42:48.147Z,15.50
2018-12-13T03:43:50.628Z,19.02
2018-12-13T03:44:53.185Z,21.12
2018-12-13T03:45:55.628Z,18.37
2018-12-13T03:46:58.076Z,20.95
2018-12-13T03:48:00.543Z,17.65
2018-12-13T03:49:03.080Z,17.55
2018-12-13T03:50:05.684Z,20.82
2018-12-13T03:51:08.265Z,18.50
2018-12-13T03:52:10.711Z,19.17
2018-12-13T03:53:13.199Z,19.57
2018-12-13T03:54:15.692Z,22.02
2018-12-13T03:55:18.160Z,24.07
2018-12-13T03:56:20.604Z,20.70
2018-12-13T03:57:23.068Z,18.85
2018-12-13T03:58:25.508Z,20.92
2018-12-13T03:59:28.005Z,22.05
2018-12-13T04:00:30.492Z,19.75
2018-12-13T04:01:32.950Z,24.75
2018-12-13T04:02:35.421Z,21.20
2018-12-13T04:03:37.908Z,22.20
2018-12-13T04:04:40.376Z,21.87
2018-12-13T04:05:42.882Z,27.30
2018-12-13T04:06:45.362Z,20.65
2018-12-13T04:07:47.823Z,21.35
2018-12-13T04:08:50.267Z,22.70
2018-12-13T04:09:52.754Z,20.40
2018-12-13T04:10:55.259Z,25.23
2018-12-13T04:11:57.774Z,19.25
2018-12-13T04:13:00.291Z,21.45
2018-12-13T04:14:02.739Z,17.85
2018-12-13T04:15:05.354Z,30.08
2018-12-13T04:16:07.872Z,26.20
2018-12-13T04:17:11.230Z,25.57
2018-12-13T04:18:13.680Z,21.62
2018-12-13T04:19:16.154Z,22.70
2018-12-13T04:20:18.630Z,20.55
2018-12-13T04:21:21.092Z,28.67
2018-12-13T04:22:23.540Z,24.12
2018-12-13T04:23:25.984Z,22.55
2018-12-13T04:24:29.317Z,25.95
2018-12-13T04:25:31.774Z,26.10
2018-12-13T04:26:34.223Z,30.02
2018-12-13T04:27:36.702Z,24.85
2018-12-13T04:28:39.134Z,24.00
2018-12-13T04:29:41.576Z,26.70
2018-12-13T04:30:44.039Z,23.18
2018-12-13T04:31:46.490Z,23.47
2018-12-13T04:32:48.927Z,25.68
2018-12-13T04:33:51.626Z,26.17
2018-12-13T04:34:54.065Z,24.15
2018-12-13T04:35:56.520Z,25.17
2018-12-13T04:36:58.974Z,22.73
2018-12-13T04:38:01.530Z,24.75
2018-12-13T04:39:06.167Z,24.07
2018-12-13T04:40:08.667Z,26.85
2018-12-13T04:41:11.127Z,24.63
2018-12-13T04:42:13.564Z,24.95
2018-12-13T04:43:16.008Z,24.18
2018-12-13T04:44:18.465Z,27.13
2018-12-13T04:45:20.908Z,23.70
2018-12-13T04:46:23.375Z,22.45
2018-12-13T04:47:25.847Z,22.02
2018-12-13T04:48:28.278Z,25.40
2018-12-13T04:49:30.708Z,26.77
2018-12-13T04:50:33.149Z,26.15
2018-12-13T04:51:35.601Z,29.32
2018-12-13T04:52:38.072Z,23.20
2018-12-13T04:53:40.521Z,26.25
2018-12-13T04:54:42.971Z,28.95
2018-12-13T04:55:45.421Z,22.30
2018-12-13T04:56:47.881Z,29.15
2018-12-13T04:57:50.314Z,24.77
2018-12-13T04:58:52.755Z,25.08
2018-12-13T04:59:55.193Z,28.95
2018-12-13T05:00:57.634Z,28.65
2018-12-13T05:02:00.087Z,23.55
2018-12-13T05:03:02.580Z,25.05
2018-12-13T05:04:05.029Z,21.17
2018-12-13T05:05:07.479Z,21.27
2018-12-13T05:06:09.918Z,26.48
2018-12-13T05:07:12.387Z,27.17
2018-12-13T05:08:14.857Z,25.50
2018-12-13T05:09:17.290Z,23.80
2018-12-13T05:10:31.745Z,25.62
2018-12-13T05:11:34.178Z,24.02
2018-12-13T05:12:36.635Z,28.77
2018-12-13T05:13:39.089Z,25.45
2018-12-13T05:14:41.547Z,26.97
2018-12-13T05:15:43.983Z,26.10
2018-12-13T05:16:46.863Z,28.57
2018-12-13T05:17:49.358Z,26.75
2018-12-13T05:18:51.836Z,29.23
2018-12-13T05:19:54.277Z,26.07
2018-12-13T05:20:56.788Z,27.93
2018-12-13T05:21:59.227Z,25.70
2018-12-13T05:23:01.722Z,26.20
2018-12-13T05:24:04.146Z,28.65
2018-12-13T05:25:06.673Z,26.02
2018-12-13T05:26:09.109Z,25.52
2018-12-13T05:27:11.574Z,25.75
2018-12-13T05:28:14.041Z,23.98
2018-12-13T05:29:16.512Z,25.77
2018-12-13T05:30:18.974Z,27.00
2018-12-13T05:31:21.415Z,26.33
2018-12-13T05:32:23.863Z,22.55
2018-12-13T05:33:26.324Z,30.20
2018-12-13T05:34:28.779Z,26.40
2018-12-13T05:35:31.211Z,28.75
2018-12-13T05:36:33.692Z,37.05
2018-12-13T05:37:36.128Z,27.02
2018-12-13T05:38:38.611Z,27.65
2018-12-13T05:39:41.151Z,23.45
2018-12-13T05:40:43.590Z,25.15
2018-12-13T05:41:46.029Z,27.95
2018-12-13T05:42:48.478Z,31.80
2018-12-13T05:43:53.017Z,27.48
2018-12-13T05:44:55.518Z,30.30
2018-12-13T05:45:57.960Z,28.38
2018-12-13T05:47:00.402Z,31.45
2018-12-13T05:48:02.891Z,28.05
2018-12-13T05:49:05.348Z,29.77
2018-12-13T05:50:07.796Z,29.40
2018-12-13T05:51:10.226Z,27.93
2018-12-13T05:52:12.679Z,29.40
2018-12-13T05:53:15.113Z,29.37
2018-12-13T05:54:17.571Z,37.53
2018-12-13T05:55:20.028Z,36.42
2018-12-13T05:56:22.470Z,38.13
2018-12-13T05:57:24.907Z,33.90
2018-12-13T05:58:27.348Z,31.68
2018-12-13T05:59:29.810Z,32.90
2018-12-13T06:00:32.522Z,29.65
2018-12-13T06:01:34.977Z,34.73
2018-12-13T06:02:37.411Z,31.93
2018-12-13T06:03:39.865Z,36.68
2018-12-13T06:04:42.339Z,30.97
2018-12-13T06:05:44.791Z,33.23
2018-12-13T06:06:47.933Z,35.95
2018-12-13T06:07:54.894Z,29.65
2018-12-13T06:08:55.091Z,33.92
2018-12-13T06:09:57.544Z,43.65
2018-12-13T06:11:00.023Z,35.85
2018-12-13T06:12:02.456Z,38.05
2018-12-13T06:13:04.909Z,33.70
2018-12-13T06:14:07.374Z,35.43
2018-12-13T06:15:09.920Z,36.70
2018-12-13T06:16:12.371Z,39.05
2018-12-13T06:17:14.810Z,39.30
2018-12-13T06:18:17.273Z,37.98
2018-12-13T06:19:19.783Z,33.73
2018-12-13T06:20:22.247Z,39.10
2018-12-13T06:21:24.713Z,38.25
2018-12-13T06:22:27.154Z,37.10
2018-12-13T06:23:29.583Z,40.60
2018-12-13T06:24:32.027Z,37.78
2018-12-13T06:25:34.501Z,37.50
2018-12-13T06:26:37.072Z,35.40
2018-12-13T06:27:39.525Z,39.30
2018-12-13T06:28:41.967Z,40.65
2018-12-13T06:29:48.877Z,36.05
2018-12-13T06:30:48.904Z,42.20
2018-12-13T06:31:51.335Z,36.35
2018-12-13T06:32:53.775Z,37.63
2018-12-13T06:33:56.226Z,41.02
2018-12-13T06:34:58.686Z,39.90
2018-12-13T06:36:01.161Z,39.13
2018-12-13T06:37:03.650Z,40.78
2018-12-13T06:38:06.192Z,40.20
2018-12-13T06:39:08.730Z,39.33
2018-12-13T06:40:15.537Z,40.35
2018-12-13T06:41:15.642Z,38.42
2018-12-13T06:42:18.081Z,41.00
2018-12-13T06:43:24.453Z,38.73
2018-12-13T06:44:26.894Z,42.90
2018-12-13T06:45:29.351Z,43.80
2018-12-13T06:46:31.816Z,34.65
2018-12-13T06:47:34.259Z,37.67
2018-12-13T06:48:36.703Z,41.08
2018-12-13T06:49:39.144Z,37.83
2018-12-13T06:50:41.603Z,37.30
2018-12-13T06:51:44.068Z,42.20
2018-12-13T06:52:46.520Z,43.92
2018-12-13T06:53:48.968Z,37.85
2018-12-13T06:54:51.399Z,44.65
2018-12-13T06:55:53.893Z,41.08
2018-12-13T06:56:56.355Z,40.95
2018-12-13T06:57:58.807Z,40.70
2018-12-13T06:59:01.243Z,46.68
2018-12-13T07:00:05.560Z,42.25
2018-12-13T07:01:08.026Z,44.35
2018-12-13T07:02:10.475Z,45.98
2018-12-13T07:03:12.947Z,38.60
2018-12-13T07:04:15.409Z,41.80
2018-12-13T07:05:17.859Z,38.70
2018-12-13T07:06:20.738Z,40.95
2018-12-13T07:07:23.196Z,43.23
2018-12-13T07:08:25.685Z,43.60
2018-12-13T07:09:28.206Z,38.67
2018-12-13T07:10:30.675Z,45.15
2018-12-13T07:11:33.150Z,49.45
2018-12-13T07:12:35.639Z,43.00
2018-12-13T07:13:38.105Z,43.73
2018-12-13T07:14:40.710Z,41.10
2018-12-13T07:15:43.192Z,45.70
2018-12-13T07:16:45.656Z,43.08
2018-12-13T07:17:48.393Z,41.63
2018-12-13T07:18:50.836Z,49.20
2018-12-13T07:19:53.314Z,42.67
2018-12-13T07:20:55.775Z,42.85
2018-12-13T07:21:58.273Z,43.87
2018-12-13T07:23:00.758Z,43.98
2018-12-13T07:24:03.287Z,53.50
2018-12-13T07:25:05.835Z,55.25
2018-12-13T07:26:08.271Z,49.30
2018-12-13T07:27:10.746Z,50.35
2018-12-13T07:28:13.249Z,54.77
2018-12-13T07:29:15.715Z,45.17
2018-12-13T07:30:18.151Z,44.23
2018-12-13T07:31:20.600Z,38.10
2018-12-13T07:32:23.053Z,60.73
2018-12-13T07:33:25.518Z,40.67
2018-12-13T07:34:27.950Z,39.30
2018-12-13T07:35:30.414Z,44.38
2018-12-13T07:36:32.878Z,40.30
2018-12-13T07:37:35.464Z,39.98
2018-12-13T07:38:37.948Z,35.10
2018-12-13T07:39:40.403Z,41.88
2018-12-13T07:40:42.966Z,39.55
2018-12-13T07:41:45.436Z,37.13
2018-12-13T07:42:47.932Z,41.95
2018-12-13T07:43:50.394Z,35.98
2018-12-13T07:44:52.838Z,40.08
2018-12-13T07:45:55.296Z,43.10
2018-12-13T07:46:57.736Z,46.63
2018-12-13T07:48:00.201Z,218.45
2018-12-13T07:49:02.675Z,64.97
2018-12-13T07:50:06.894Z,63.25
2018-12-13T07:51:09.339Z,113.40
2018-12-13T07:52:11.779Z,34.85
2018-12-13T07:53:14.237Z,35.90
2018-12-13T07:54:16.756Z,36.30
2018-12-13T07:55:19.204Z,36.10
2018-12-13T07:56:21.672Z,36.48
2018-12-13T07:57:24.123Z,32.42
2018-12-13T07:58:26.672Z,38.92
2018-12-13T07:59:29.137Z,36.50
2018-12-13T08:00:31.582Z,37.63
2018-12-13T08:01:34.052Z,32.38
2018-12-13T08:02:36.713Z,39.33
2018-12-13T08:03:39.171Z,33.02
2018-12-13T08:04:41.626Z,38.15
2018-12-13T08:05:44.067Z,36.13
2018-12-13T08:06:46.509Z,34.65
2018-12-13T08:07:48.954Z,41.08
2018-12-13T08:08:51.409Z,34.03
2018-12-13T08:09:53.851Z,36.03
2018-12-13T08:10:56.293Z,34.83
2018-12-13T08:11:58.745Z,37.40
2018-12-13T08:13:01.189Z,33.63
2018-12-13T08:14:03.751Z,32.98
2018-12-13T08:15:06.393Z,36.88
2018-12-13T08:16:08.843Z,34.10
2018-12-13T08:17:11.284Z,34.23
2018-12-13T08:18:13.782Z,31.20
2018-12-13T08:19:16.235Z,34.03
2018-12-13T08:20:18.701Z,36.75
2018-12-13T08:21:21.155Z,35.73
2018-12-13T08:22:23.599Z,34.55
2018-12-13T08:23:26.073Z,35.28
2018-12-13T08:24:28.553Z,31.20
2018-12-13T08:25:31.042Z,39.18
2018-12-13T08:26:33.506Z,33.15
2018-12-13T08:27:35.948Z,41.55
2018-12-13T08:28:38.400Z,33.18
2018-12-13T08:29:40.874Z,36.15
2018-12-13T08:30:43.330Z,31.73
2018-12-13T08:31:45.767Z,35.25
2018-12-13T08:32:48.239Z,32.28
2018-12-13T08:33:50.691Z,29.45
2018-12-13T08:34:53.178Z,43.65
2018-12-13T08:35:55.803Z,40.43
2018-12-13T08:36:58.250Z,54.15
2018-12-13T08:38:00.692Z,51.23
2018-12-13T08:39:05.227Z,87.00
2018-12-13T08:40:07.702Z,36.55
2018-12-13T08:41:10.143Z,31.42
2018-12-13T08:42:12.584Z,33.73
2018-12-13T08:43:15.025Z,34.67
2018-12-13T08:44:17.521Z,34.50
2018-12-13T08:45:19.981Z,34.38
2018-12-13T08:46:22.447Z,32.05
2018-12-13T08:47:24.907Z,34.00
2018-12-13T08:48:27.332Z,33.55
2018-12-13T08:49:29.780Z,26.70
2018-12-13T08:50:32.245Z,28.42
2018-12-13T08:51:34.710Z,30.23
2018-12-13T08:52:37.154Z,35.48
2018-12-13T08:53:39.605Z,36.00
2018-12-13T08:54:42.063Z,30.48
2018-12-13T08:55:44.524Z,29.65
2018-12-13T08:56:46.978Z,32.13
2018-12-13T08:57:49.419Z,30.50
2018-12-13T08:58:51.855Z,29.82
2018-12-13T08:59:54.300Z,32.67
2018-12-13T09:00:56.756Z,27.90
2018-12-13T09:01:59.219Z,28.02
2018-12-13T09:03:01.871Z,29.30
2018-12-13T09:04:04.310Z,31.77
2018-12-13T09:05:06.742Z,31.37
2018-12-13T09:06:09.187Z,27.62
2018-12-13T09:07:11.670Z,36.23
2018-12-13T09:08:14.117Z,36.48
2018-12-13T09:09:16.555Z,30.45
2018-12-13T09:10:19.004Z,27.82
2018-12-13T09:11:21.468Z,34.83
2018-12-13T09:12:23.922Z,32.67
2018-12-13T09:13:26.389Z,32.80
2018-12-13T09:14:28.862Z,29.85
2018-12-13T09:15:31.300Z,33.42
2018-12-13T09:16:33.753Z,30.90
2018-12-13T09:17:36.214Z,33.95
2018-12-13T09:18:38.651Z,31.25
2018-12-13T09:19:41.106Z,34.70
2018-12-13T09:20:43.554Z,34.58
2018-12-13T09:21:46.011Z,31.68
2018-12-13T09:22:48.468Z,30.15
2018-12-13T09:23:50.907Z,34.00
2018-12-13T09:24:53.353Z,36.35
2018-12-13T09:25:55.796Z,42.67
2018-12-13T09:26:58.256Z,31.27
2018-12-13T09:28:00.722Z,55.70
2018-12-13T09:29:03.177Z,52.45
2018-12-13T09:30:06.236Z,37.95
2018-12-13T09:31:08.680Z,38.38
2018-12-13T09:32:11.135Z,29.95
2018-12-13T09:33:13.574Z,35.58
2018-12-13T09:34:16.020Z,31.27
2018-12-13T09:35:18.464Z,35.75
2018-12-13T09:36:20.899Z,35.80
2018-12-13T09:37:23.356Z,34.43
2018-12-13T09:38:27.293Z,35.05
2018-12-13T09:39:30.082Z,32.65
2018-12-13T09:40:32.515Z,39.15
2018-12-13T09:41:34.959Z,34.08
2018-12-13T09:42:37.434Z,34.15
2018-12-13T09:43:39.921Z,31.10
2018-12-13T09:44:42.351Z,31.73
2018-12-13T09:45:44.817Z,33.13
2018-12-13T09:46:47.256Z,35.70
2018-12-13T09:47:49.715Z,32.88
2018-12-13T09:48:52.176Z,32.00
2018-12-13T09:49:54.638Z,39.13
2018-12-13T09:50:57.171Z,33.33
2018-12-13T09:51:59.701Z,36.03
2018-12-13T09:53:02.153Z,38.05
2018-12-13T09:54:04.615Z,31.45
2018-12-13T09:55:07.068Z,30.62
2018-12-13T09:56:09.516Z,30.43
2018-12-13T09:57:11.960Z,37.98
2018-12-13T09:58:14.419Z,33.83
2018-12-13T09:59:16.880Z,34.58
2018-12-13T10:00:19.319Z,38.17
2018-12-13T10:01:21.777Z,35.43
2018-12-13T10:02:24.275Z,31.20
2018-12-13T10:03:26.724Z,33.35
2018-12-13T10:04:29.180Z,32.60
2018-12-13T10:05:31.619Z,36.90
2018-12-13T10:06:34.052Z,30.10
2018-12-13T10:07:36.495Z,34.85
2018-12-13T10:08:38.950Z,34.60
2018-12-13T10:09:41.413Z,34.67
2018-12-13T10:10:43.952Z,29.45
2018-12-13T10:11:46.407Z,30.85
2018-12-13T10:12:48.854Z,33.30
2018-12-13T10:13:51.367Z,34.65
2018-12-13T10:14:53.832Z,36.80
2018-12-13T10:15:56.303Z,35.13
2018-12-13T10:16:58.754Z,29.75
2018-12-13T10:18:01.233Z,32.35
2018-12-13T10:19:03.776Z,27.93
2018-12-13T10:20:06.503Z,47.98
2018-12-13T10:21:08.954Z,35.15
2018-12-13T10:22:11.943Z,54.33
2018-12-13T10:23:14.601Z,74.35
2018-12-13T10:24:17.071Z,33.28
2018-12-13T10:25:19.507Z,37.30
2018-12-13T10:26:21.973Z,35.35
2018-12-13T10:27:24.423Z,34.05
2018-12-13T10:28:26.876Z,35.00
2018-12-13T10:29:29.375Z,27.35
2018-12-13T10:30:31.926Z,31.62
2018-12-13T10:31:34.369Z,30.32
2018-12-13T10:32:36.811Z,29.85
2018-12-13T10:33:39.247Z,29.40
2018-12-13T10:34:41.796Z,33.67
2018-12-13T10:35:44.284Z,29.15
2018-12-13T10:36:46.728Z,30.02
2018-12-13T10:37:49.308Z,26.90
2018-12-13T10:38:53.201Z,29.87
2018-12-13T10:39:56.055Z,34.08
2018-12-13T10:40:58.500Z,31.42
2018-12-13T10:42:00.939Z,31.40
2018-12-13T10:43:03.387Z,30.68
2018-12-13T10:44:05.824Z,30.62
2018-12-13T10:45:08.305Z,33.95
2018-12-13T10:46:10.845Z,32.55
2018-12-13T10:47:13.287Z,29.40
2018-12-13T10:48:15.737Z,33.00
2018-12-13T10:49:18.213Z,39.67
2018-12-13T10:50:20.678Z,39.08
2018-12-13T10:51:23.181Z,33.58
2018-12-13T10:52:25.637Z,36.10
2018-12-13T10:53:28.080Z,40.83
2018-12-13T10:54:30.607Z,31.68
2018-12-13T10:55:33.066Z,33.25
2018-12-13T10:56:35.563Z,32.75
2018-12-13T10:57:38.095Z,27.70
2018-12-13T10:58:40.540Z,32.33
2018-12-13T10:59:42.987Z,28.50
2018-12-13T11:02:29.971Z,30.17
2018-12-13T11:03:35.261Z,30.68
2018-12-13T11:04:37.715Z,25.37
2018-12-13T11:05:40.158Z,24.40
2018-12-13T11:06:42.653Z,27.22
2018-12-13T11:07:45.087Z,32.58
2018-12-13T11:08:47.540Z,34.03
2018-12-13T11:09:49.982Z,28.75
2018-12-13T11:10:52.512Z,23.22
2018-12-13T11:11:54.975Z,30.00
2018-12-13T11:12:57.418Z,25.88
2018-12-13T11:13:59.860Z,40.48
2018-12-13T11:15:02.303Z,28.05
2018-12-13T11:16:04.774Z,27.35
2018-12-13T11:17:07.240Z,30.30
2018-12-13T11:18:09.708Z,29.42
2018-12-13T11:19:12.159Z,23.90
2018-12-13T11:20:14.603Z,30.57
2018-12-13T11:21:17.508Z,30.08
2018-12-13T11:22:20.150Z,29.32
2018-12-13T11:23:22.600Z,23.67
2018-12-13T11:24:25.049Z,26.75
2018-12-13T11:25:27.501Z,24.70
2018-12-13T11:26:29.963Z,21.42
2018-12-13T11:27:40.479Z,24.60
2018-12-13T11:28:55.081Z,22.37
2018-12-13T11:30:05.483Z,26.05
2018-12-13T11:31:07.972Z,23.02
2018-12-13T11:32:10.439Z,23.90
2018-12-13T11:33:12.996Z,61.08
2018-12-13T11:34:15.456Z,44.70
2018-12-13T11:35:17.903Z,54.35
2018-12-13T11:36:20.545Z,82.12
2018-12-13T11:37:22.994Z,36.63
2018-12-13T11:38:25.487Z,32.20
2018-12-13T11:39:28.002Z,28.83
2018-12-13T11:40:30.826Z,24.23
2018-12-13T11:41:33.290Z,24.47
2018-12-13T11:42:35.748Z,24.07
2018-12-13T11:43:38.306Z,22.75
2018-12-13T11:44:40.739Z,28.98
2018-12-13T11:45:43.187Z,23.65
2018-12-13T11:46:45.655Z,31.15
2018-12-13T11:47:48.110Z,28.75
2018-12-13T11:48:50.834Z,31.50
2018-12-13T11:49:53.296Z,24.70
2018-12-13T11:50:55.768Z,22.95
2018-12-13T11:51:58.210Z,26.77
2018-12-13T11:53:00.664Z,25.40
2018-12-13T11:54:05.698Z,22.00
2018-12-13T11:56:43.994Z,24.32
2018-12-13T11:57:46.439Z,26.35
2018-12-13T11:58:48.895Z,24.12
2018-12-13T11:59:51.338Z,20.77
2018-12-13T12:00:53.778Z,22.32
2018-12-13T12:01:56.220Z,20.88
2018-12-13T12:02:58.660Z,24.32
2018-12-13T12:04:01.528Z,30.00
2018-12-13T12:05:04.766Z,27.13
2018-12-13T12:06:07.280Z,22.42
2018-12-13T12:07:09.738Z,24.15
2018-12-13T12:08:12.208Z,30.60
2018-12-13T12:09:14.679Z,25.55
2018-12-13T12:10:17.214Z,23.75
2018-12-13T12:11:19.688Z,28.10
2018-12-13T12:12:22.149Z,16.67
2018-12-13T12:13:24.611Z,23.67
2018-12-13T12:14:27.090Z,21.23
2018-12-13T12:15:29.627Z,25.08
2018-12-13T12:16:32.068Z,24.02
2018-12-13T12:17:34.512Z,22.42
2018-12-13T12:18:37.078Z,22.93
2018-12-13T12:19:39.738Z,26.02
2018-12-13T12:20:42.199Z,22.58
2018-12-13T12:21:44.647Z,23.80
2018-12-13T12:22:47.100Z,19.57
2018-12-13T12:23:49.544Z,29.15
2018-12-13T12:24:52.024Z,20.55
2018-12-13T12:25:54.496Z,23.45
2018-12-13T12:26:56.961Z,23.50
2018-12-13T12:27:59.403Z,21.93
2018-12-13T12:29:01.864Z,26.90
2018-12-13T12:30:05.359Z,24.75
2018-12-13T12:31:07.795Z,22.82
2018-12-13T12:32:10.358Z,24.63
2018-12-13T12:33:12.798Z,20.85
2018-12-13T12:34:15.255Z,23.32
2018-12-13T12:35:17.719Z,23.47
2018-12-13T12:36:20.182Z,33.65
2018-12-13T12:37:22.660Z,22.98
2018-12-13T12:38:25.175Z,18.73
2018-12-13T12:39:27.612Z,20.20
2018-12-13T12:40:30.063Z,28.25
2018-12-13T12:41:32.510Z,20.12
2018-12-13T12:42:34.947Z,26.40
2018-12-13T12:43:37.402Z,22.80
2018-12-13T12:44:41.233Z,24.25
2018-12-13T12:45:43.695Z,25.08
2018-12-13T12:46:46.159Z,30.15
2018-12-13T12:47:48.592Z,28.83
2018-12-13T12:48:51.039Z,25.27
2018-12-13T12:49:53.514Z,23.55
2018-12-13T12:50:55.968Z,25.17
2018-12-13T12:51:58.422Z,22.98
2018-12-13T12:53:00.857Z,21.00
2018-12-13T12:54:03.388Z,19.95
2018-12-13T12:55:06.032Z,25.02
2018-12-13T12:56:08.541Z,21.33
2018-12-13T12:57:13.355Z,20.72
2018-12-13T12:58:16.118Z,28.65
2018-12-13T12:59:18.599Z,26.23
2018-12-13T13:00:21.040Z,22.55
2018-12-13T13:01:23.818Z,23.02
2018-12-13T13:02:26.557Z,24.52
2018-12-13T13:03:29.945Z,23.75
2018-12-13T13:04:34.462Z,21.07
2018-12-13T13:05:36.923Z,31.68
2018-12-13T13:06:39.428Z,38.70
2018-12-13T13:07:42.623Z,25.80
2018-12-13T13:08:45.803Z,41.48
2018-12-13T13:09:48.337Z,24.55
2018-12-13T13:10:50.801Z,24.02
2018-12-13T13:11:53.383Z,26.42
2018-12-13T13:12:55.841Z,25.20
2018-12-13T13:13:58.959Z,24.18
2018-12-13T13:15:01.561Z,22.02
2018-12-13T13:16:04.035Z,21.10
2018-12-13T13:17:06.632Z,25.70
2018-12-13T13:18:09.179Z,27.65
2018-12-13T13:19:11.997Z,24.32
2018-12-13T13:20:14.510Z,21.52
2018-12-13T13:21:17.047Z,24.45
2018-12-13T13:22:19.665Z,23.57
2018-12-13T13:23:22.153Z,22.93
2018-12-13T13:24:24.608Z,24.05
2018-12-13T13:25:27.584Z,27.55
2018-12-13T13:26:30.076Z,25.30
2018-12-13T13:27:32.615Z,23.98
2018-12-13T13:28:35.112Z,24.37
2018-12-13T13:29:37.543Z,32.42
2018-12-13T13:30:40.144Z,35.10